createdAt,value
2022-10-22T00:01:49.851Z,97834.31
2022-10-22T00:04:57.260Z,97844.31
2022-10-22T00:08:05.669Z,97846.72
2022-10-22T00:11:13.631Z,97848.56
2022-10-22T00:14:19.404Z,97842.41
2022-10-22T00:17:25.322Z,97843.88
2022-10-22T00:20:34.643Z,97845.63
2022-10-22T00:23:44.139Z,97854.72
2022-10-22T00:26:49.925Z,97855.97
2022-10-22T00:29:55.740Z,97847.72
2022-10-22T00:33:01.317Z,97847.44
2022-10-22T00:36:07.630Z,97836.41
2022-10-22T00:39:16.991Z,97832.56
2022-10-22T00:42:29.642Z,97835.81
2022-10-22T00:45:35.358Z,97836.53
2022-10-22T00:48:41.112Z,97836.13
2022-10-22T00:51:46.772Z,97824.97
2022-10-22T00:54:55.956Z,97813.31
2022-10-22T00:58:02.987Z,97817.63
2022-10-22T01:01:15.844Z,97819.66
2022-10-22T01:04:23.315Z,97812.00
2022-10-22T01:07:29.854Z,97806.53
2022-10-22T01:11:00.629Z,97816.03
2022-10-22T01:14:23.259Z,97812.66
2022-10-22T01:17:43.920Z,97802.28
2022-10-22T01:21:18.311Z,97812.44
2022-10-22T01:24:45.175Z,97797.94
2022-10-22T01:28:14.387Z,97789.66
2022-10-22T01:31:28.281Z,97786.69
2022-10-22T01:34:37.438Z,97792.00
2022-10-22T01:37:51.994Z,97804.31
2022-10-22T01:40:59.593Z,97803.50
2022-10-22T01:44:05.331Z,97793.41
2022-10-22T01:47:26.025Z,97807.34
2022-10-22T01:51:07.208Z,97794.06
2022-10-22T01:54:36.302Z,97800.47
2022-10-22T01:57:58.236Z,97790.94
2022-10-22T02:01:18.410Z,97774.72
2022-10-22T02:04:37.032Z,97779.56
2022-10-22T02:07:50.195Z,97772.50
2022-10-22T02:10:59.062Z,97784.03
2022-10-22T02:14:16.715Z,97785.72
2022-10-22T02:17:25.518Z,97777.00
2022-10-22T02:20:38.854Z,97787.34
2022-10-22T02:23:44.881Z,97774.19
2022-10-22T02:27:06.288Z,97780.97
2022-10-22T02:30:19.730Z,97779.38
2022-10-22T02:33:35.111Z,97778.56
2022-10-22T02:36:49.676Z,97767.09
2022-10-22T02:39:59.109Z,97770.25
2022-10-22T02:43:08.857Z,97793.69
2022-10-22T02:46:15.673Z,97791.41
2022-10-22T02:49:21.625Z,97794.88
2022-10-22T02:52:30.031Z,97798.59
2022-10-22T02:55:35.588Z,97797.63
2022-10-22T02:58:41.180Z,97794.59
2022-10-22T03:01:46.909Z,97803.91
2022-10-22T03:04:52.979Z,97803.91
2022-10-22T03:08:01.272Z,97812.66
2022-10-22T03:11:06.931Z,97832.44
2022-10-22T03:14:12.697Z,97813.41
2022-10-22T03:17:18.351Z,97816.22
2022-10-22T03:20:23.916Z,97817.91
2022-10-22T03:23:32.317Z,97807.44
2022-10-22T03:26:40.162Z,97807.81
2022-10-22T03:29:47.321Z,97790.84
2022-10-22T03:32:52.861Z,97774.66
2022-10-22T03:35:58.783Z,97774.97
2022-10-22T03:39:08.686Z,97774.28
2022-10-22T03:42:14.788Z,97771.41
2022-10-22T03:45:20.673Z,97775.16
2022-10-22T03:48:26.520Z,97781.88
2022-10-22T03:51:33.094Z,97792.78
2022-10-22T03:54:42.758Z,97793.31
2022-10-22T03:57:48.665Z,97789.03
2022-10-22T04:00:54.473Z,97787.38
2022-10-22T04:04:01.803Z,97785.78
2022-10-22T04:07:11.789Z,97797.81
2022-10-22T04:10:20.447Z,97805.13
2022-10-22T04:13:26.239Z,97805.88
2022-10-22T04:16:34.026Z,97796.63
2022-10-22T04:19:39.881Z,97802.69
2022-10-22T04:22:45.567Z,97794.50
2022-10-22T04:25:53.821Z,97788.94
2022-10-22T04:28:59.460Z,97782.06
2022-10-22T04:32:05.202Z,97785.78
2022-10-22T04:35:11.823Z,97777.47
2022-10-22T04:38:19.343Z,97766.53
2022-10-22T04:41:30.627Z,97769.41
2022-10-22T04:44:36.506Z,97756.28
2022-10-22T04:47:42.566Z,97755.38
2022-10-22T04:50:50.071Z,97748.50
2022-10-22T04:53:56.403Z,97744.94
2022-10-22T04:57:04.843Z,97745.19
2022-10-22T05:00:13.074Z,97756.19
2022-10-22T05:03:18.616Z,97757.63
2022-10-22T05:06:26.259Z,97759.97
2022-10-22T05:09:45.986Z,97766.53
2022-10-22T05:12:55.341Z,97766.41
2022-10-22T05:16:05.247Z,97774.09
2022-10-22T05:19:12.922Z,97769.94
2022-10-22T05:22:18.856Z,97776.34
2022-10-22T05:25:24.535Z,97789.63
2022-10-22T05:28:32.782Z,97795.38
2022-10-22T05:31:39.135Z,97785.13
2022-10-22T05:34:44.686Z,97785.28
2022-10-22T05:37:51.042Z,97774.44
2022-10-22T05:41:04.559Z,97762.44
2022-10-22T05:44:16.131Z,97772.09
2022-10-22T05:47:21.707Z,97780.28
2022-10-22T05:50:27.256Z,97792.00
2022-10-22T05:53:32.969Z,97794.44
2022-10-22T05:56:39.652Z,97770.28
2022-10-22T05:59:47.834Z,97780.56
2022-10-22T06:02:54.398Z,97794.69
2022-10-22T06:06:00.124Z,97810.38
2022-10-22T06:09:09.839Z,97818.63
2022-10-22T06:12:15.507Z,97824.97
2022-10-22T06:15:25.279Z,97803.31
2022-10-22T06:18:36.839Z,97819.47
2022-10-22T06:21:42.775Z,97831.59
2022-10-22T06:24:48.337Z,97840.84
2022-10-22T06:27:55.144Z,97827.63
2022-10-22T06:31:07.326Z,97847.50
2022-10-22T06:34:19.042Z,97844.41
2022-10-22T06:37:24.717Z,97841.09
2022-10-22T06:40:36.244Z,97856.72
2022-10-22T06:43:42.617Z,97843.59
2022-10-22T06:46:53.553Z,97855.50
2022-10-22T06:49:59.073Z,97849.53
2022-10-22T06:53:06.412Z,97852.19
2022-10-22T06:56:16.084Z,97848.31
2022-10-22T06:59:22.110Z,97834.25
2022-10-22T07:02:49.025Z,97842.63
2022-10-22T07:06:05.265Z,97876.31
2022-10-22T07:09:22.806Z,97868.69
2022-10-22T07:12:30.263Z,97866.81
2022-10-22T07:15:36.151Z,97863.84
2022-10-22T07:18:52.923Z,97835.34
2022-10-22T07:22:01.043Z,97844.66
2022-10-22T07:25:09.308Z,97862.03
2022-10-22T07:28:15.333Z,97854.69
2022-10-22T07:31:22.057Z,97848.25
2022-10-22T07:34:30.451Z,97854.00
2022-10-22T07:37:36.299Z,97829.16
2022-10-22T07:40:41.969Z,97847.19
2022-10-22T07:43:50.591Z,97856.66
2022-10-22T07:46:59.195Z,97868.47
2022-10-22T07:50:09.565Z,97869.50
2022-10-22T07:53:15.121Z,97860.88
2022-10-22T07:56:20.807Z,97868.84
2022-10-22T07:59:26.575Z,97854.47
2022-10-22T08:02:32.379Z,97847.03
2022-10-22T08:05:40.825Z,97842.44
2022-10-22T08:08:48.781Z,97843.56
2022-10-22T08:11:54.935Z,97838.50
2022-10-22T08:15:11.749Z,97850.13
2022-10-22T08:18:17.565Z,97858.72
2022-10-22T08:21:26.016Z,97838.19
2022-10-22T08:24:32.123Z,97861.13
2022-10-22T08:27:38.221Z,97871.88
2022-10-22T08:30:46.555Z,97861.56
2022-10-22T08:33:52.287Z,97860.00
2022-10-22T08:37:00.886Z,97858.34
2022-10-22T08:40:08.514Z,97860.25
2022-10-22T08:43:54.918Z,97875.41
2022-10-22T08:47:34.839Z,97876.34
2022-10-22T08:50:49.196Z,97868.25
2022-10-22T08:54:31.928Z,97865.34
2022-10-22T08:58:00.821Z,97865.25
2022-10-22T09:01:16.734Z,97863.50
2022-10-22T09:04:31.608Z,97854.72
2022-10-22T09:07:44.084Z,97865.50
2022-10-22T09:11:01.477Z,97874.69
2022-10-22T09:14:08.608Z,97873.81
2022-10-22T09:17:24.543Z,97886.56
2022-10-22T09:20:46.828Z,97881.94
2022-10-22T09:24:07.686Z,97883.38
2022-10-22T09:27:20.107Z,97890.47
2022-10-22T09:30:29.880Z,97881.44
2022-10-22T09:33:35.675Z,97879.84
2022-10-22T09:36:41.449Z,97890.22
2022-10-22T09:39:51.462Z,97898.56
2022-10-22T09:42:59.651Z,97896.13
2022-10-22T09:46:09.192Z,97887.16
2022-10-22T09:49:20.642Z,97880.19
2022-10-22T09:52:38.486Z,97896.97
2022-10-22T09:55:46.432Z,97894.31
2022-10-22T09:58:55.527Z,97904.41
2022-10-22T10:02:20.041Z,97897.03
2022-10-22T10:05:41.473Z,97902.66
2022-10-22T10:08:47.271Z,97900.44
2022-10-22T10:12:09.751Z,97905.75
2022-10-22T10:15:34.173Z,97903.13
2022-10-22T10:19:14.087Z,97900.06
2022-10-22T10:22:45.085Z,97895.69
2022-10-22T10:26:04.212Z,97891.56
2022-10-22T10:29:30.744Z,97901.88
2022-10-22T10:33:05.177Z,97902.94
2022-10-22T10:36:25.859Z,97886.06
2022-10-22T10:39:58.616Z,97888.97
2022-10-22T10:43:14.013Z,97888.53
2022-10-22T10:46:37.373Z,97892.63
2022-10-22T10:49:49.259Z,97878.50
2022-10-22T10:53:16.176Z,97881.97
2022-10-22T10:56:42.673Z,97873.88
2022-10-22T11:00:04.826Z,97875.78
2022-10-22T11:04:03.229Z,97870.28
2022-10-22T11:07:34.366Z,97856.75
2022-10-22T11:10:48.300Z,97858.81
2022-10-22T11:14:03.336Z,97869.41
2022-10-22T11:17:20.001Z,97855.00
2022-10-22T11:20:40.718Z,97851.91
2022-10-22T11:23:58.823Z,97857.75
2022-10-22T11:27:20.475Z,97851.00
2022-10-22T11:30:31.582Z,97847.69
2022-10-22T11:33:48.424Z,97849.19
2022-10-22T11:36:58.544Z,97845.66
2022-10-22T11:40:17.222Z,97849.19
2022-10-22T11:43:36.076Z,97852.03
2022-10-22T11:46:56.738Z,97857.97
2022-10-22T11:50:22.974Z,97867.03
2022-10-22T11:53:36.508Z,97881.81
2022-10-22T11:56:46.260Z,97864.63
2022-10-22T11:59:56.795Z,97859.63
2022-10-22T12:03:07.799Z,97859.59
2022-10-22T12:06:25.417Z,97850.59
2022-10-22T12:09:35.315Z,97856.44
2022-10-22T12:12:43.675Z,97862.75
2022-10-22T12:15:56.378Z,97862.53
2022-10-22T12:19:15.868Z,97841.19
2022-10-22T12:22:27.027Z,97839.38
2022-10-22T12:25:36.808Z,97845.22
2022-10-22T12:28:45.624Z,97862.91
2022-10-22T12:31:51.435Z,97866.38
2022-10-22T12:34:57.063Z,97860.88
2022-10-22T12:38:07.843Z,97858.19
2022-10-22T12:41:13.784Z,97853.69
2022-10-22T12:44:22.910Z,97841.47
2022-10-22T12:47:28.677Z,97835.47
2022-10-22T12:50:43.327Z,97840.25
2022-10-22T12:53:54.384Z,97852.06
2022-10-22T12:57:01.530Z,97841.72
2022-10-22T13:00:26.595Z,97837.59
2022-10-22T13:03:38.691Z,97836.94
2022-10-22T13:06:49.357Z,97830.22
2022-10-22T13:10:02.823Z,97819.97
2022-10-22T13:13:09.274Z,97822.03
2022-10-22T13:16:28.136Z,97822.75
2022-10-22T13:19:43.600Z,97835.97
2022-10-22T13:23:02.973Z,97841.22
2022-10-22T13:26:20.006Z,97834.44
2022-10-22T13:29:28.334Z,97833.72
2022-10-22T13:32:37.621Z,97829.75
2022-10-22T13:35:43.338Z,97829.47
2022-10-22T13:38:49.688Z,97833.00
2022-10-22T13:41:55.381Z,97840.09
2022-10-22T13:45:00.994Z,97852.34
2022-10-22T13:48:15.845Z,97839.72
2022-10-22T13:51:26.358Z,97839.22
2022-10-22T13:54:32.105Z,97830.56
2022-10-22T13:57:37.710Z,97841.56
2022-10-22T14:00:49.263Z,97835.38
2022-10-22T14:04:03.104Z,97839.72
2022-10-22T14:07:16.814Z,97845.44
2022-10-22T14:10:26.344Z,97856.53
2022-10-22T14:13:32.091Z,97853.56
2022-10-22T14:16:40.531Z,97851.97
2022-10-22T14:19:52.440Z,97836.28
2022-10-22T14:23:05.184Z,97839.09
2022-10-22T14:26:15.570Z,97845.94
2022-10-22T14:29:21.162Z,97843.09
2022-10-22T14:32:26.889Z,97856.97
2022-10-22T14:35:35.107Z,97855.41
2022-10-22T14:38:40.904Z,97863.31
2022-10-22T14:41:46.926Z,97855.84
2022-10-22T14:44:52.982Z,97856.47
2022-10-22T14:47:58.880Z,97861.88
2022-10-22T14:51:07.562Z,97862.34
2022-10-22T14:54:13.292Z,97852.09
2022-10-22T14:57:19.006Z,97859.47
2022-10-22T15:00:25.578Z,97861.03
2022-10-22T15:03:31.747Z,97858.00
2022-10-22T15:06:40.166Z,97842.78
2022-10-22T15:09:46.215Z,97842.56
2022-10-22T15:12:51.754Z,97848.63
2022-10-22T15:15:57.460Z,97843.22
2022-10-22T15:19:03.058Z,97857.81
2022-10-22T15:22:11.273Z,97865.63
2022-10-22T15:25:18.001Z,97860.09
2022-10-22T15:28:23.927Z,97854.88
2022-10-22T15:31:51.407Z,97865.41
2022-10-22T15:34:59.171Z,97874.28
2022-10-22T15:38:09.443Z,97886.41
2022-10-22T15:41:16.237Z,97890.53
2022-10-22T15:44:25.377Z,97891.41
2022-10-22T15:47:31.644Z,97891.59
2022-10-22T15:50:41.878Z,97896.47
2022-10-22T15:53:56.206Z,97902.53
2022-10-22T15:57:08.733Z,97900.03
2022-10-22T16:00:16.363Z,97898.31
2022-10-22T16:03:22.095Z,97893.25
2022-10-22T16:06:27.734Z,97906.25
2022-10-22T16:09:44.980Z,97920.47
2022-10-22T16:12:51.883Z,97916.50
2022-10-22T16:15:57.849Z,97916.97
2022-10-22T16:19:04.192Z,97913.97
2022-10-22T16:22:11.647Z,97922.59
2022-10-22T16:25:20.069Z,97932.97
2022-10-22T16:28:28.157Z,97925.25
2022-10-22T16:31:34.013Z,97940.09
2022-10-22T16:34:39.684Z,97942.00
2022-10-22T16:37:50.096Z,97936.69
2022-10-22T16:41:16.552Z,97939.50
2022-10-22T16:44:22.396Z,97956.00
2022-10-22T16:47:28.155Z,97961.78
2022-10-22T16:50:36.338Z,97975.56
2022-10-22T16:53:42.022Z,97969.88
2022-10-22T16:56:50.414Z,97965.44
2022-10-22T16:59:56.130Z,97976.50
2022-10-22T17:03:02.168Z,97981.69
2022-10-22T17:06:12.748Z,97987.47
2022-10-22T17:13:18.350Z,97991.25
2022-10-22T17:16:27.113Z,97999.28
2022-10-22T17:19:34.450Z,97994.53
2022-10-22T17:22:40.739Z,97998.75
2022-10-22T17:25:53.019Z,97987.91
2022-10-22T17:29:02.118Z,97991.66
2022-10-22T17:32:10.084Z,98002.97
2022-10-22T17:35:20.108Z,98005.25
2022-10-22T17:38:26.088Z,98004.28
2022-10-22T17:41:36.243Z,98010.41
2022-10-22T17:44:44.715Z,98012.81
2022-10-22T17:47:52.194Z,98016.34
2022-10-22T17:50:59.301Z,98018.16
2022-10-22T17:54:07.487Z,98010.28
2022-10-22T17:57:16.602Z,98023.59
2022-10-22T18:00:25.154Z,98008.03
2022-10-22T18:03:31.012Z,98015.41
2022-10-22T18:06:38.388Z,98008.78
2022-10-22T18:09:45.557Z,98021.75
2022-10-22T18:12:51.368Z,98019.78
2022-10-22T18:16:02.715Z,98035.22
2022-10-22T18:19:08.418Z,98027.69
2022-10-22T18:22:14.199Z,98031.19
2022-10-22T18:25:20.116Z,98038.28
2022-10-22T18:28:25.961Z,98033.31
2022-10-22T18:31:34.305Z,98030.22
2022-10-22T18:34:40.172Z,98035.13
2022-10-22T18:37:46.022Z,98026.38
2022-10-22T18:40:53.349Z,98027.06
2022-10-22T18:44:02.590Z,98027.50
2022-10-22T18:47:13.138Z,98037.72
2022-10-22T18:50:19.386Z,98040.19
2022-10-22T18:53:25.219Z,98042.75
2022-10-22T18:56:41.208Z,98047.09
2022-10-22T18:59:46.829Z,98052.31
2022-10-22T19:02:55.208Z,98058.13
2022-10-22T19:06:01.101Z,98061.25
2022-10-22T19:09:09.485Z,98060.69
2022-10-22T19:12:16.053Z,98056.91
2022-10-22T19:15:21.822Z,98055.34
2022-10-22T19:18:36.194Z,98069.81
2022-10-22T19:21:41.780Z,98071.22
2022-10-22T19:24:48.152Z,98075.78
2022-10-22T19:27:59.583Z,98078.72
2022-10-22T19:31:08.048Z,98097.75
2022-10-22T19:34:17.305Z,98094.78
2022-10-22T19:37:23.089Z,98094.25
2022-10-22T19:40:28.967Z,98100.22
2022-10-22T19:43:34.756Z,98088.75
2022-10-22T19:46:40.734Z,98108.41
2022-10-22T19:49:49.103Z,98118.25
2022-10-22T19:52:54.707Z,98116.47
2022-10-22T19:56:01.166Z,98121.06
2022-10-22T19:59:09.194Z,98126.56
2022-10-22T20:02:22.550Z,98131.75
2022-10-22T20:05:30.904Z,98132.00
2022-10-22T20:08:38.273Z,98130.53
2022-10-22T20:11:44.232Z,98130.38
2022-10-22T20:14:49.938Z,98128.81
2022-10-22T20:17:55.871Z,98138.84
2022-10-22T20:21:15.194Z,98134.66
2022-10-22T20:24:20.862Z,98137.47
2022-10-22T20:27:26.588Z,98140.00
2022-10-22T20:30:32.207Z,98138.75
2022-10-22T20:33:39.245Z,98136.72
2022-10-22T20:36:48.063Z,98139.75
2022-10-22T20:39:59.205Z,98141.97
2022-10-22T20:43:08.563Z,98139.81
2022-10-22T20:46:29.340Z,98147.28
2022-10-22T20:49:40.070Z,98144.25
2022-10-22T20:52:48.308Z,98141.00
2022-10-22T20:55:59.768Z,98145.72
2022-10-22T20:59:08.542Z,98155.81
2022-10-22T21:02:17.344Z,98148.72
2022-10-22T21:05:22.974Z,98150.28
2022-10-22T21:08:31.194Z,98151.13
2022-10-22T21:11:42.061Z,98151.94
2022-10-22T21:14:49.200Z,98161.97
2022-10-22T21:17:54.770Z,98163.09
2022-10-22T21:21:00.332Z,98162.41
2022-10-22T21:24:09.127Z,98157.38
2022-10-22T21:27:14.718Z,98160.50
2022-10-22T21:30:20.519Z,98164.28
2022-10-22T21:33:29.206Z,98164.94
2022-10-22T21:36:34.877Z,98173.72
2022-10-22T21:39:43.122Z,98179.28
2022-10-22T21:42:48.722Z,98175.97
2022-10-22T21:45:54.377Z,98163.81
2022-10-22T21:49:08.523Z,98175.38
2022-10-22T21:52:16.558Z,98177.78
2022-10-22T21:55:24.851Z,98174.47
2022-10-22T21:58:30.488Z,98180.44
2022-10-22T22:01:43.102Z,98180.97
2022-10-22T22:04:51.509Z,98180.31
2022-10-22T22:07:57.135Z,98183.13
2022-10-22T22:11:11.778Z,98189.09
2022-10-22T22:14:17.642Z,98186.53
2022-10-22T22:17:23.239Z,98191.09
2022-10-22T22:20:29.091Z,98189.97
2022-10-22T22:23:35.398Z,98185.84
2022-10-22T22:26:44.010Z,98188.69
2022-10-22T22:29:49.716Z,98192.59
2022-10-22T22:32:55.329Z,98196.84
2022-10-22T22:36:04.007Z,98204.75
2022-10-22T22:39:15.405Z,98199.16
2022-10-22T22:42:23.774Z,98201.84
2022-10-22T22:45:29.332Z,98200.03
2022-10-22T22:48:39.137Z,98208.34
2022-10-22T22:51:45.151Z,98219.28
2022-10-22T22:54:51.102Z,98206.78
2022-10-22T22:57:59.361Z,98210.94
2022-10-22T23:01:18.394Z,98211.38
2022-10-22T23:04:26.506Z,98209.38
2022-10-22T23:07:32.076Z,98198.69
2022-10-22T23:10:37.698Z,98214.34
2022-10-22T23:13:46.869Z,98218.50
2022-10-22T23:16:56.124Z,98224.75
2022-10-22T23:20:01.801Z,98223.56
2022-10-22T23:23:08.618Z,98229.16
2022-10-22T23:26:15.767Z,98224.03
2022-10-22T23:29:27.042Z,98233.94
2022-10-22T23:32:32.785Z,98240.38
2022-10-22T23:35:41.482Z,98245.56
2022-10-22T23:38:47.414Z,98246.91
2022-10-22T23:41:53.655Z,98252.06
2022-10-22T23:45:01.847Z,98264.00
2022-10-22T23:48:07.976Z,98261.84
2022-10-22T23:51:17.632Z,98254.53
2022-10-22T23:54:23.252Z,98261.56
2022-10-22T23:57:28.998Z,98276.00
